sensor_id;sensor_type;location;lat;lon;timestamp;P1;durP1;ratioP1;P2;durP2;ratioP2
39524;SDS011;25203;50.754;6.978;2022-11-20T00:01:16;33.05;;;21.13;;
39524;SDS011;25203;50.754;6.978;2022-11-20T00:03:18;32.35;;;21.60;;
39524;SDS011;25203;50.754;6.978;2022-11-20T00:05:19;35.08;;;20.95;;
39524;SDS011;25203;50.754;6.978;2022-11-20T00:07:20;32.55;;;20.92;;
39524;SDS011;25203;50.754;6.978;2022-11-20T00:09:21;30.17;;;20.15;;
39524;SDS011;25203;50.754;6.978;2022-11-20T00:11:22;30.42;;;19.30;;
39524;SDS011;25203;50.754;6.978;2022-11-20T00:13:25;29.92;;;19.73;;
39524;SDS011;25203;50.754;6.978;2022-11-20T00:15:25;33.67;;;21.98;;
39524;SDS011;25203;50.754;6.978;2022-11-20T00:17:26;32.17;;;19.08;;
39524;SDS011;25203;50.754;6.978;2022-11-20T00:19:26;36.05;;;21.85;;
39524;SDS011;25203;50.754;6.978;2022-11-20T00:21:27;29.38;;;19.77;;
39524;SDS011;25203;50.754;6.978;2022-11-20T00:23:28;33.28;;;21.00;;
39524;SDS011;25203;50.754;6.978;2022-11-20T00:25:29;32.25;;;19.15;;
39524;SDS011;25203;50.754;6.978;2022-11-20T00:27:30;29.95;;;20.25;;
39524;SDS011;25203;50.754;6.978;2022-11-20T00:29:30;32.28;;;20.08;;
39524;SDS011;25203;50.754;6.978;2022-11-20T00:31:31;34.08;;;21.67;;
39524;SDS011;25203;50.754;6.978;2022-11-20T00:33:33;34.08;;;21.42;;
39524;SDS011;25203;50.754;6.978;2022-11-20T00:35:34;34.40;;;20.42;;
39524;SDS011;25203;50.754;6.978;2022-11-20T00:37:35;32.42;;;21.15;;
39524;SDS011;25203;50.754;6.978;2022-11-20T00:39:35;34.80;;;21.65;;
39524;SDS011;25203;50.754;6.978;2022-11-20T00:41:36;34.47;;;21.63;;
39524;SDS011;25203;50.754;6.978;2022-11-20T00:43:37;33.75;;;20.40;;
39524;SDS011;25203;50.754;6.978;2022-11-20T00:45:37;35.95;;;21.73;;
39524;SDS011;25203;50.754;6.978;2022-11-20T00:47:38;34.15;;;21.58;;
39524;SDS011;25203;50.754;6.978;2022-11-20T00:49:39;36.90;;;22.05;;
39524;SDS011;25203;50.754;6.978;2022-11-20T00:51:39;34.15;;;22.88;;
39524;SDS011;25203;50.754;6.978;2022-11-20T00:53:40;34.28;;;21.88;;
39524;SDS011;25203;50.754;6.978;2022-11-20T00:55:41;36.60;;;23.60;;
39524;SDS011;25203;50.754;6.978;2022-11-20T00:57:41;35.05;;;23.15;;
39524;SDS011;25203;50.754;6.978;2022-11-20T00:59:42;37.38;;;23.83;;
39524;SDS011;25203;50.754;6.978;2022-11-20T01:01:42;35.72;;;24.23;;
39524;SDS011;25203;50.754;6.978;2022-11-20T01:03:44;44.45;;;25.40;;
39524;SDS011;25203;50.754;6.978;2022-11-20T01:05:46;38.25;;;24.30;;
39524;SDS011;25203;50.754;6.978;2022-11-20T01:07:47;36.00;;;22.45;;
39524;SDS011;25203;50.754;6.978;2022-11-20T01:09:47;40.15;;;23.52;;
39524;SDS011;25203;50.754;6.978;2022-11-20T01:11:48;37.25;;;22.77;;
39524;SDS011;25203;50.754;6.978;2022-11-20T01:13:49;39.00;;;23.23;;
39524;SDS011;25203;50.754;6.978;2022-11-20T01:15:51;37.80;;;23.88;;
39524;SDS011;25203;50.754;6.978;2022-11-20T01:17:51;37.58;;;23.02;;
39524;SDS011;25203;50.754;6.978;2022-11-20T01:19:52;36.65;;;24.02;;
39524;SDS011;25203;50.754;6.978;2022-11-20T01:21:53;36.47;;;23.15;;
39524;SDS011;25203;50.754;6.978;2022-11-20T01:23:54;35.75;;;23.45;;
39524;SDS011;25203;50.754;6.978;2022-11-20T01:25:55;35.97;;;23.17;;
39524;SDS011;25203;50.754;6.978;2022-11-20T01:27:56;36.28;;;22.17;;
39524;SDS011;25203;50.754;6.978;2022-11-20T01:29:56;35.97;;;22.38;;
39524;SDS011;25203;50.754;6.978;2022-11-20T01:31:57;37.35;;;23.42;;
39524;SDS011;25203;50.754;6.978;2022-11-20T01:33:58;34.00;;;21.77;;
39524;SDS011;25203;50.754;6.978;2022-11-20T01:36:04;35.20;;;21.98;;
39524;SDS011;25203;50.754;6.978;2022-11-20T01:38:06;35.58;;;22.77;;
39524;SDS011;25203;50.754;6.978;2022-11-20T01:40:07;39.67;;;23.38;;
39524;SDS011;25203;50.754;6.978;2022-11-20T01:42:08;35.20;;;20.60;;
39524;SDS011;25203;50.754;6.978;2022-11-20T01:46:57;34.97;;;22.13;;
39524;SDS011;25203;50.754;6.978;2022-11-20T01:49:02;31.85;;;21.48;;
39524;SDS011;25203;50.754;6.978;2022-11-20T01:51:12;30.15;;;20.65;;
39524;SDS011;25203;50.754;6.978;2022-11-20T01:53:27;33.03;;;21.25;;
39524;SDS011;25203;50.754;6.978;2022-11-20T01:55:36;35.80;;;23.20;;
39524;SDS011;25203;50.754;6.978;2022-11-20T01:57:41;32.28;;;20.50;;
39524;SDS011;25203;50.754;6.978;2022-11-20T01:59:44;35.05;;;21.88;;
39524;SDS011;25203;50.754;6.978;2022-11-20T02:01:50;32.75;;;21.83;;
39524;SDS011;25203;50.754;6.978;2022-11-20T02:03:51;34.50;;;23.20;;
39524;SDS011;25203;50.754;6.978;2022-11-20T02:08:10;32.63;;;21.88;;
39524;SDS011;25203;50.754;6.978;2022-11-20T02:10:12;35.00;;;21.35;;
39524;SDS011;25203;50.754;6.978;2022-11-20T02:12:13;37.83;;;22.48;;
39524;SDS011;25203;50.754;6.978;2022-11-20T02:14:34;33.78;;;21.85;;
39524;SDS011;25203;50.754;6.978;2022-11-20T02:16:39;36.42;;;21.75;;
39524;SDS011;25203;50.754;6.978;2022-11-20T02:18:54;36.65;;;21.60;;
39524;SDS011;25203;50.754;6.978;2022-11-20T02:26:03;35.08;;;23.08;;
39524;SDS011;25203;50.754;6.978;2022-11-20T02:28:07;34.15;;;21.70;;
39524;SDS011;25203;50.754;6.978;2022-11-20T02:30:08;34.55;;;21.92;;
39524;SDS011;25203;50.754;6.978;2022-11-20T02:32:17;35.78;;;22.05;;
39524;SDS011;25203;50.754;6.978;2022-11-20T02:34:33;33.95;;;23.20;;
39524;SDS011;25203;50.754;6.978;2022-11-20T02:36:34;35.80;;;22.42;;
39524;SDS011;25203;50.754;6.978;2022-11-20T02:38:36;36.33;;;23.13;;
39524;SDS011;25203;50.754;6.978;2022-11-20T02:40:36;40.50;;;23.95;;
39524;SDS011;25203;50.754;6.978;2022-11-20T02:42:37;36.53;;;22.85;;
39524;SDS011;25203;50.754;6.978;2022-11-20T02:44:38;38.03;;;23.05;;
39524;SDS011;25203;50.754;6.978;2022-11-20T02:46:38;36.80;;;22.92;;
39524;SDS011;25203;50.754;6.978;2022-11-20T02:48:39;41.13;;;24.38;;
39524;SDS011;25203;50.754;6.978;2022-11-20T02:50:40;35.35;;;22.38;;
39524;SDS011;25203;50.754;6.978;2022-11-20T02:52:41;36.25;;;24.25;;
39524;SDS011;25203;50.754;6.978;2022-11-20T02:54:41;37.55;;;23.63;;
39524;SDS011;25203;50.754;6.978;2022-11-20T02:56:42;39.13;;;23.85;;
39524;SDS011;25203;50.754;6.978;2022-11-20T02:58:43;34.95;;;21.65;;
39524;SDS011;25203;50.754;6.978;2022-11-20T03:00:44;39.83;;;25.10;;
39524;SDS011;25203;50.754;6.978;2022-11-20T03:02:44;39.60;;;23.92;;
39524;SDS011;25203;50.754;6.978;2022-11-20T03:04:45;36.90;;;22.38;;
39524;SDS011;25203;50.754;6.978;2022-11-20T03:06:45;36.15;;;22.45;;
39524;SDS011;25203;50.754;6.978;2022-11-20T03:08:46;37.97;;;22.20;;
39524;SDS011;25203;50.754;6.978;2022-11-20T03:10:47;35.47;;;22.08;;
39524;SDS011;25203;50.754;6.978;2022-11-20T03:12:47;38.38;;;23.85;;
39524;SDS011;25203;50.754;6.978;2022-11-20T03:14:54;37.58;;;23.83;;
39524;SDS011;25203;50.754;6.978;2022-11-20T03:16:55;38.13;;;23.05;;
39524;SDS011;25203;50.754;6.978;2022-11-20T03:18:55;39.38;;;23.17;;
39524;SDS011;25203;50.754;6.978;2022-11-20T03:20:57;35.28;;;22.58;;
39524;SDS011;25203;50.754;6.978;2022-11-20T03:22:59;37.83;;;23.75;;
39524;SDS011;25203;50.754;6.978;2022-11-20T03:24:59;34.47;;;22.55;;
39524;SDS011;25203;50.754;6.978;2022-11-20T03:27:00;38.90;;;24.65;;
39524;SDS011;25203;50.754;6.978;2022-11-20T03:29:01;40.67;;;23.65;;
39524;SDS011;25203;50.754;6.978;2022-11-20T03:31:05;38.55;;;23.67;;
39524;SDS011;25203;50.754;6.978;2022-11-20T03:33:13;40.28;;;23.60;;
39524;SDS011;25203;50.754;6.978;2022-11-20T03:35:13;39.45;;;23.30;;
39524;SDS011;25203;50.754;6.978;2022-11-20T03:37:14;39.22;;;23.13;;
39524;SDS011;25203;50.754;6.978;2022-11-20T03:39:14;42.95;;;22.42;;
39524;SDS011;25203;50.754;6.978;2022-11-20T03:41:19;41.03;;;23.67;;
39524;SDS011;25203;50.754;6.978;2022-11-20T03:43:21;34.33;;;19.38;;
39524;SDS011;25203;50.754;6.978;2022-11-20T03:45:22;42.00;;;23.58;;
39524;SDS011;25203;50.754;6.978;2022-11-20T03:47:22;38.40;;;21.50;;
39524;SDS011;25203;50.754;6.978;2022-11-20T03:49:23;35.08;;;21.65;;
39524;SDS011;25203;50.754;6.978;2022-11-20T03:51:24;37.00;;;21.33;;
39524;SDS011;25203;50.754;6.978;2022-11-20T03:53:26;36.55;;;20.80;;
39524;SDS011;25203;50.754;6.978;2022-11-20T03:55:27;35.90;;;21.55;;
39524;SDS011;25203;50.754;6.978;2022-11-20T03:57:28;34.85;;;20.50;;
39524;SDS011;25203;50.754;6.978;2022-11-20T03:59:28;33.53;;;20.48;;
39524;SDS011;25203;50.754;6.978;2022-11-20T04:01:33;35.97;;;21.45;;
39524;SDS011;25203;50.754;6.978;2022-11-20T04:03:35;35.85;;;21.25;;
39524;SDS011;25203;50.754;6.978;2022-11-20T04:05:37;40.35;;;22.20;;
39524;SDS011;25203;50.754;6.978;2022-11-20T04:07:37;38.78;;;22.50;;
39524;SDS011;25203;50.754;6.978;2022-11-20T04:09:38;39.70;;;22.20;;
39524;SDS011;25203;50.754;6.978;2022-11-20T04:11:39;36.20;;;22.40;;
39524;SDS011;25203;50.754;6.978;2022-11-20T04:13:40;39.78;;;23.13;;
39524;SDS011;25203;50.754;6.978;2022-11-20T04:15:42;40.30;;;21.70;;
39524;SDS011;25203;50.754;6.978;2022-11-20T04:17:42;38.38;;;22.42;;
39524;SDS011;25203;50.754;6.978;2022-11-20T04:19:43;40.10;;;22.25;;
39524;SDS011;25203;50.754;6.978;2022-11-20T04:21:44;39.05;;;22.05;;
39524;SDS011;25203;50.754;6.978;2022-11-20T04:23:44;39.47;;;23.08;;
39524;SDS011;25203;50.754;6.978;2022-11-20T04:25:45;38.85;;;22.10;;
39524;SDS011;25203;50.754;6.978;2022-11-20T04:27:45;38.53;;;22.40;;
39524;SDS011;25203;50.754;6.978;2022-11-20T04:29:46;43.75;;;23.00;;
39524;SDS011;25203;50.754;6.978;2022-11-20T04:31:47;43.03;;;23.38;;
39524;SDS011;25203;50.754;6.978;2022-11-20T04:33:47;36.42;;;22.42;;
39524;SDS011;25203;50.754;6.978;2022-11-20T04:35:48;38.92;;;21.90;;
39524;SDS011;25203;50.754;6.978;2022-11-20T04:37:51;39.50;;;23.58;;
39524;SDS011;25203;50.754;6.978;2022-11-20T04:39:52;40.35;;;22.92;;
39524;SDS011;25203;50.754;6.978;2022-11-20T04:41:52;43.20;;;22.88;;
39524;SDS011;25203;50.754;6.978;2022-11-20T04:44:13;39.15;;;21.45;;
39524;SDS011;25203;50.754;6.978;2022-11-20T04:46:14;39.72;;;21.92;;
39524;SDS011;25203;50.754;6.978;2022-11-20T04:48:15;44.47;;;24.48;;
39524;SDS011;25203;50.754;6.978;2022-11-20T04:50:16;51.33;;;25.25;;
39524;SDS011;25203;50.754;6.978;2022-11-20T04:52:16;43.53;;;24.02;;
39524;SDS011;25203;50.754;6.978;2022-11-20T04:54:17;47.33;;;24.83;;
39524;SDS011;25203;50.754;6.978;2022-11-20T04:56:18;47.08;;;24.92;;
39524;SDS011;25203;50.754;6.978;2022-11-20T04:58:18;44.30;;;24.20;;
39524;SDS011;25203;50.754;6.978;2022-11-20T05:00:19;43.28;;;22.92;;
39524;SDS011;25203;50.754;6.978;2022-11-20T05:02:19;39.60;;;23.45;;
39524;SDS011;25203;50.754;6.978;2022-11-20T05:04:20;41.67;;;23.50;;
39524;SDS011;25203;50.754;6.978;2022-11-20T05:06:21;44.35;;;23.50;;
39524;SDS011;25203;50.754;6.978;2022-11-20T05:08:22;42.20;;;22.40;;
39524;SDS011;25203;50.754;6.978;2022-11-20T05:10:23;42.70;;;23.40;;
39524;SDS011;25203;50.754;6.978;2022-11-20T05:12:27;41.70;;;22.60;;
39524;SDS011;25203;50.754;6.978;2022-11-20T05:14:28;44.13;;;24.73;;
39524;SDS011;25203;50.754;6.978;2022-11-20T05:16:29;36.58;;;20.83;;
39524;SDS011;25203;50.754;6.978;2022-11-20T05:18:29;38.40;;;22.10;;
39524;SDS011;25203;50.754;6.978;2022-11-20T05:20:30;43.55;;;24.00;;
39524;SDS011;25203;50.754;6.978;2022-11-20T05:22:31;43.20;;;22.48;;
39524;SDS011;25203;50.754;6.978;2022-11-20T05:24:31;41.60;;;22.58;;
39524;SDS011;25203;50.754;6.978;2022-11-20T05:26:32;36.50;;;21.08;;
39524;SDS011;25203;50.754;6.978;2022-11-20T05:28:33;37.15;;;21.88;;
39524;SDS011;25203;50.754;6.978;2022-11-20T05:30:33;39.58;;;23.20;;
39524;SDS011;25203;50.754;6.978;2022-11-20T05:32:34;37.35;;;21.17;;
39524;SDS011;25203;50.754;6.978;2022-11-20T05:34:35;44.05;;;23.98;;
39524;SDS011;25203;50.754;6.978;2022-11-20T05:36:36;41.50;;;23.38;;
39524;SDS011;25203;50.754;6.978;2022-11-20T05:38:36;44.33;;;23.92;;
39524;SDS011;25203;50.754;6.978;2022-11-20T05:40:37;38.97;;;22.42;;
39524;SDS011;25203;50.754;6.978;2022-11-20T05:42:38;43.65;;;23.58;;
39524;SDS011;25203;50.754;6.978;2022-11-20T05:44:39;46.65;;;24.05;;
39524;SDS011;25203;50.754;6.978;2022-11-20T05:46:39;44.83;;;24.77;;
39524;SDS011;25203;50.754;6.978;2022-11-20T05:48:40;46.58;;;24.27;;
39524;SDS011;25203;50.754;6.978;2022-11-20T05:50:42;42.38;;;22.38;;
39524;SDS011;25203;50.754;6.978;2022-11-20T05:52:42;42.05;;;24.30;;
39524;SDS011;25203;50.754;6.978;2022-11-20T05:54:44;47.75;;;24.92;;
39524;SDS011;25203;50.754;6.978;2022-11-20T05:56:45;44.85;;;25.85;;
39524;SDS011;25203;50.754;6.978;2022-11-20T05:58:47;46.72;;;25.70;;
39524;SDS011;25203;50.754;6.978;2022-11-20T06:00:48;46.42;;;24.88;;
39524;SDS011;25203;50.754;6.978;2022-11-20T06:02:48;48.83;;;26.25;;
39524;SDS011;25203;50.754;6.978;2022-11-20T06:04:49;42.97;;;24.10;;
39524;SDS011;25203;50.754;6.978;2022-11-20T06:06:50;41.47;;;23.73;;
39524;SDS011;25203;50.754;6.978;2022-11-20T06:08:50;42.25;;;23.23;;
39524;SDS011;25203;50.754;6.978;2022-11-20T06:10:51;38.85;;;23.00;;
39524;SDS011;25203;50.754;6.978;2022-11-20T06:12:51;45.13;;;24.75;;
39524;SDS011;25203;50.754;6.978;2022-11-20T06:14:52;40.97;;;24.80;;
39524;SDS011;25203;50.754;6.978;2022-11-20T06:16:53;44.10;;;25.48;;
39524;SDS011;25203;50.754;6.978;2022-11-20T06:18:53;41.90;;;23.20;;
39524;SDS011;25203;50.754;6.978;2022-11-20T06:21:01;43.17;;;24.60;;
39524;SDS011;25203;50.754;6.978;2022-11-20T06:23:03;44.75;;;24.23;;
39524;SDS011;25203;50.754;6.978;2022-11-20T06:25:04;38.05;;;22.88;;
39524;SDS011;25203;50.754;6.978;2022-11-20T06:27:04;44.35;;;24.23;;
39524;SDS011;25203;50.754;6.978;2022-11-20T06:29:05;40.00;;;24.00;;
39524;SDS011;25203;50.754;6.978;2022-11-20T06:31:06;43.05;;;23.80;;
39524;SDS011;25203;50.754;6.978;2022-11-20T06:33:07;38.92;;;23.40;;
39524;SDS011;25203;50.754;6.978;2022-11-20T06:35:07;42.10;;;23.92;;
39524;SDS011;25203;50.754;6.978;2022-11-20T06:37:08;43.80;;;24.58;;
39524;SDS011;25203;50.754;6.978;2022-11-20T06:39:09;42.47;;;25.40;;
39524;SDS011;25203;50.754;6.978;2022-11-20T06:41:10;32.90;;;21.02;;
39524;SDS011;25203;50.754;6.978;2022-11-20T06:43:12;35.95;;;21.83;;
39524;SDS011;25203;50.754;6.978;2022-11-20T06:45:13;34.47;;;21.75;;
39524;SDS011;25203;50.754;6.978;2022-11-20T06:47:13;36.25;;;21.67;;
39524;SDS011;25203;50.754;6.978;2022-11-20T06:49:14;37.97;;;23.38;;
39524;SDS011;25203;50.754;6.978;2022-11-20T06:51:15;36.15;;;21.85;;
39524;SDS011;25203;50.754;6.978;2022-11-20T06:53:16;39.45;;;23.42;;
39524;SDS011;25203;50.754;6.978;2022-11-20T06:55:16;37.90;;;22.27;;
39524;SDS011;25203;50.754;6.978;2022-11-20T06:57:17;39.72;;;23.75;;
39524;SDS011;25203;50.754;6.978;2022-11-20T06:59:18;35.33;;;21.58;;
39524;SDS011;25203;50.754;6.978;2022-11-20T07:01:18;38.78;;;25.40;;
39524;SDS011;25203;50.754;6.978;2022-11-20T07:03:19;37.35;;;22.80;;
39524;SDS011;25203;50.754;6.978;2022-11-20T07:05:20;41.42;;;24.95;;
39524;SDS011;25203;50.754;6.978;2022-11-20T07:07:20;36.50;;;23.02;;
39524;SDS011;25203;50.754;6.978;2022-11-20T07:09:21;40.58;;;23.33;;
39524;SDS011;25203;50.754;6.978;2022-11-20T07:11:21;37.20;;;21.77;;
39524;SDS011;25203;50.754;6.978;2022-11-20T07:13:22;44.65;;;25.17;;
39524;SDS011;25203;50.754;6.978;2022-11-20T07:15:23;36.67;;;21.80;;
39524;SDS011;25203;50.754;6.978;2022-11-20T07:17:24;35.95;;;22.25;;
39524;SDS011;25203;50.754;6.978;2022-11-20T07:19:25;37.08;;;21.45;;
39524;SDS011;25203;50.754;6.978;2022-11-20T07:21:26;39.33;;;23.67;;
39524;SDS011;25203;50.754;6.978;2022-11-20T07:23:26;39.70;;;23.95;;
39524;SDS011;25203;50.754;6.978;2022-11-20T07:25:27;37.15;;;22.60;;
39524;SDS011;25203;50.754;6.978;2022-11-20T07:27:28;38.58;;;22.92;;
39524;SDS011;25203;50.754;6.978;2022-11-20T07:29:29;36.80;;;23.00;;
39524;SDS011;25203;50.754;6.978;2022-11-20T07:31:30;41.97;;;23.33;;
39524;SDS011;25203;50.754;6.978;2022-11-20T07:33:31;38.45;;;23.88;;
39524;SDS011;25203;50.754;6.978;2022-11-20T07:35:31;36.17;;;21.85;;
39524;SDS011;25203;50.754;6.978;2022-11-20T07:37:35;37.10;;;21.58;;
39524;SDS011;25203;50.754;6.978;2022-11-20T07:39:36;33.85;;;20.42;;
39524;SDS011;25203;50.754;6.978;2022-11-20T07:41:37;34.60;;;20.83;;
39524;SDS011;25203;50.754;6.978;2022-11-20T07:43:37;36.50;;;23.00;;
39524;SDS011;25203;50.754;6.978;2022-11-20T07:45:38;35.88;;;22.50;;
39524;SDS011;25203;50.754;6.978;2022-11-20T07:47:38;35.42;;;21.42;;
39524;SDS011;25203;50.754;6.978;2022-11-20T07:49:39;36.53;;;22.38;;
39524;SDS011;25203;50.754;6.978;2022-11-20T07:51:39;34.75;;;21.17;;
39524;SDS011;25203;50.754;6.978;2022-11-20T07:53:40;39.55;;;22.70;;
39524;SDS011;25203;50.754;6.978;2022-11-20T07:55:40;37.40;;;21.77;;
39524;SDS011;25203;50.754;6.978;2022-11-20T07:57:41;35.10;;;21.73;;
39524;SDS011;25203;50.754;6.978;2022-11-20T07:59:42;35.70;;;22.48;;
39524;SDS011;25203;50.754;6.978;2022-11-20T08:01:42;39.60;;;23.67;;
39524;SDS011;25203;50.754;6.978;2022-11-20T08:03:43;38.83;;;22.75;;
39524;SDS011;25203;50.754;6.978;2022-11-20T08:05:44;35.15;;;22.23;;
39524;SDS011;25203;50.754;6.978;2022-11-20T08:07:44;40.75;;;22.92;;
39524;SDS011;25203;50.754;6.978;2022-11-20T08:09:45;37.90;;;22.77;;
39524;SDS011;25203;50.754;6.978;2022-11-20T08:11:45;33.22;;;21.65;;
39524;SDS011;25203;50.754;6.978;2022-11-20T08:14:04;35.30;;;22.77;;
39524;SDS011;25203;50.754;6.978;2022-11-20T08:16:11;35.70;;;22.45;;
39524;SDS011;25203;50.754;6.978;2022-11-20T08:18:12;39.78;;;23.60;;
39524;SDS011;25203;50.754;6.978;2022-11-20T08:20:12;41.05;;;24.20;;
39524;SDS011;25203;50.754;6.978;2022-11-20T08:22:13;36.20;;;22.30;;
39524;SDS011;25203;50.754;6.978;2022-11-20T08:24:14;41.78;;;24.77;;
39524;SDS011;25203;50.754;6.978;2022-11-20T08:26:14;36.08;;;22.75;;
39524;SDS011;25203;50.754;6.978;2022-11-20T08:28:15;38.47;;;23.30;;
39524;SDS011;25203;50.754;6.978;2022-11-20T08:30:15;37.42;;;24.42;;
39524;SDS011;25203;50.754;6.978;2022-11-20T08:32:16;37.95;;;22.83;;
39524;SDS011;25203;50.754;6.978;2022-11-20T08:34:17;38.50;;;23.25;;
39524;SDS011;25203;50.754;6.978;2022-11-20T08:36:17;38.65;;;23.20;;
39524;SDS011;25203;50.754;6.978;2022-11-20T08:38:19;34.80;;;21.90;;
39524;SDS011;25203;50.754;6.978;2022-11-20T08:40:20;41.55;;;24.02;;
39524;SDS011;25203;50.754;6.978;2022-11-20T08:42:20;35.00;;;21.92;;
39524;SDS011;25203;50.754;6.978;2022-11-20T08:44:21;37.88;;;22.30;;
39524;SDS011;25203;50.754;6.978;2022-11-20T08:46:22;32.50;;;20.98;;
39524;SDS011;25203;50.754;6.978;2022-11-20T08:48:24;36.15;;;22.63;;
39524;SDS011;25203;50.754;6.978;2022-11-20T08:50:25;41.05;;;24.30;;
39524;SDS011;25203;50.754;6.978;2022-11-20T08:52:26;40.92;;;23.73;;
39524;SDS011;25203;50.754;6.978;2022-11-20T08:54:26;44.20;;;25.90;;
39524;SDS011;25203;50.754;6.978;2022-11-20T08:56:27;39.08;;;23.42;;
39524;SDS011;25203;50.754;6.978;2022-11-20T08:58:28;39.55;;;24.35;;
39524;SDS011;25203;50.754;6.978;2022-11-20T09:00:28;41.78;;;24.98;;
39524;SDS011;25203;50.754;6.978;2022-11-20T09:02:29;43.58;;;24.95;;
39524;SDS011;25203;50.754;6.978;2022-11-20T09:04:30;45.15;;;25.35;;
39524;SDS011;25203;50.754;6.978;2022-11-20T09:06:30;39.58;;;24.50;;
39524;SDS011;25203;50.754;6.978;2022-11-20T09:08:31;39.13;;;23.75;;
39524;SDS011;25203;50.754;6.978;2022-11-20T09:10:32;37.63;;;22.90;;
39524;SDS011;25203;50.754;6.978;2022-11-20T09:12:32;40.13;;;23.20;;
39524;SDS011;25203;50.754;6.978;2022-11-20T09:14:33;41.28;;;24.23;;
39524;SDS011;25203;50.754;6.978;2022-11-20T09:16:33;35.38;;;21.83;;
39524;SDS011;25203;50.754;6.978;2022-11-20T09:18:34;37.38;;;23.65;;
39524;SDS011;25203;50.754;6.978;2022-11-20T09:20:37;41.63;;;23.23;;
39524;SDS011;25203;50.754;6.978;2022-11-20T09:22:39;40.03;;;22.95;;
39524;SDS011;25203;50.754;6.978;2022-11-20T09:24:40;42.30;;;24.30;;
39524;SDS011;25203;50.754;6.978;2022-11-20T09:26:42;34.20;;;21.10;;
39524;SDS011;25203;50.754;6.978;2022-11-20T09:28:43;39.42;;;22.33;;
39524;SDS011;25203;50.754;6.978;2022-11-20T09:30:44;33.55;;;20.67;;
39524;SDS011;25203;50.754;6.978;2022-11-20T09:32:44;34.70;;;21.80;;
39524;SDS011;25203;50.754;6.978;2022-11-20T09:34:45;41.53;;;22.65;;
39524;SDS011;25203;50.754;6.978;2022-11-20T09:36:46;40.08;;;22.10;;
39524;SDS011;25203;50.754;6.978;2022-11-20T09:38:46;38.20;;;21.13;;
39524;SDS011;25203;50.754;6.978;2022-11-20T09:40:50;34.33;;;21.55;;
39524;SDS011;25203;50.754;6.978;2022-11-20T09:45:21;42.83;;;23.65;;
39524;SDS011;25203;50.754;6.978;2022-11-20T09:49:40;36.20;;;21.63;;
39524;SDS011;25203;50.754;6.978;2022-11-20T09:52:00;36.60;;;20.83;;
39524;SDS011;25203;50.754;6.978;2022-11-20T09:54:22;28.10;;;18.45;;
39524;SDS011;25203;50.754;6.978;2022-11-20T09:56:28;32.08;;;19.33;;
39524;SDS011;25203;50.754;6.978;2022-11-20T09:58:33;34.92;;;19.90;;
39524;SDS011;25203;50.754;6.978;2022-11-20T10:00:47;28.77;;;18.05;;
39524;SDS011;25203;50.754;6.978;2022-11-20T10:02:59;26.38;;;17.52;;
39524;SDS011;25203;50.754;6.978;2022-11-20T10:07:32;21.38;;;14.57;;
39524;SDS011;25203;50.754;6.978;2022-11-20T10:09:38;21.73;;;15.38;;
39524;SDS011;25203;50.754;6.978;2022-11-20T10:19:26;23.80;;;14.90;;
39524;SDS011;25203;50.754;6.978;2022-11-20T10:24:48;30.23;;;17.02;;
39524;SDS011;25203;50.754;6.978;2022-11-20T10:29:15;26.98;;;17.92;;
39524;SDS011;25203;50.754;6.978;2022-11-20T10:33:32;30.05;;;18.08;;
39524;SDS011;25203;50.754;6.978;2022-11-20T10:35:42;25.13;;;15.98;;
39524;SDS011;25203;50.754;6.978;2022-11-20T10:38:05;27.13;;;17.52;;
39524;SDS011;25203;50.754;6.978;2022-11-20T10:40:31;29.15;;;17.95;;
39524;SDS011;25203;50.754;6.978;2022-11-20T10:42:37;31.80;;;19.30;;
39524;SDS011;25203;50.754;6.978;2022-11-20T10:44:48;34.35;;;19.75;;
39524;SDS011;25203;50.754;6.978;2022-11-20T10:47:01;31.63;;;19.77;;
39524;SDS011;25203;50.754;6.978;2022-11-20T10:49:04;28.27;;;17.88;;
39524;SDS011;25203;50.754;6.978;2022-11-20T10:51:17;28.92;;;18.48;;
39524;SDS011;25203;50.754;6.978;2022-11-20T10:53:37;32.50;;;18.88;;
39524;SDS011;25203;50.754;6.978;2022-11-20T10:55:50;31.80;;;19.38;;
39524;SDS011;25203;50.754;6.978;2022-11-20T10:58:14;32.03;;;19.27;;
39524;SDS011;25203;50.754;6.978;2022-11-20T11:00:41;31.25;;;19.35;;
39524;SDS011;25203;50.754;6.978;2022-11-20T11:02:44;29.63;;;16.75;;
39524;SDS011;25203;50.754;6.978;2022-11-20T11:04:51;29.35;;;18.35;;
39524;SDS011;25203;50.754;6.978;2022-11-20T11:06:53;30.35;;;18.35;;
39524;SDS011;25203;50.754;6.978;2022-11-20T11:08:59;30.13;;;18.98;;
39524;SDS011;25203;50.754;6.978;2022-11-20T11:11:18;29.10;;;18.02;;
39524;SDS011;25203;50.754;6.978;2022-11-20T11:13:24;30.05;;;18.30;;
39524;SDS011;25203;50.754;6.978;2022-11-20T11:15:29;29.20;;;19.35;;
39524;SDS011;25203;50.754;6.978;2022-11-20T11:17:45;28.48;;;17.35;;
39524;SDS011;25203;50.754;6.978;2022-11-20T11:19:56;30.02;;;18.13;;
39524;SDS011;25203;50.754;6.978;2022-11-20T11:22:01;28.23;;;18.27;;
39524;SDS011;25203;50.754;6.978;2022-11-20T11:24:20;26.95;;;17.00;;
39524;SDS011;25203;50.754;6.978;2022-11-20T11:26:29;30.35;;;18.88;;
39524;SDS011;25203;50.754;6.978;2022-11-20T11:28:30;26.27;;;16.85;;
39524;SDS011;25203;50.754;6.978;2022-11-20T11:30:41;27.20;;;17.55;;
39524;SDS011;25203;50.754;6.978;2022-11-20T11:32:43;33.65;;;19.60;;
39524;SDS011;25203;50.754;6.978;2022-11-20T11:34:45;31.13;;;19.50;;
39524;SDS011;25203;50.754;6.978;2022-11-20T11:36:58;31.02;;;18.45;;
39524;SDS011;25203;50.754;6.978;2022-11-20T11:39:00;30.98;;;18.27;;
39524;SDS011;25203;50.754;6.978;2022-11-20T11:41:06;27.60;;;16.90;;
39524;SDS011;25203;50.754;6.978;2022-11-20T11:43:20;29.38;;;18.63;;
39524;SDS011;25203;50.754;6.978;2022-11-20T11:45:50;32.83;;;19.17;;
39524;SDS011;25203;50.754;6.978;2022-11-20T11:47:56;33.33;;;19.20;;
39524;SDS011;25203;50.754;6.978;2022-11-20T11:50:01;28.27;;;18.00;;
39524;SDS011;25203;50.754;6.978;2022-11-20T11:52:04;27.38;;;16.92;;
39524;SDS011;25203;50.754;6.978;2022-11-20T11:54:16;30.33;;;17.67;;
39524;SDS011;25203;50.754;6.978;2022-11-20T11:56:20;27.77;;;17.23;;
39524;SDS011;25203;50.754;6.978;2022-11-20T12:03:38;27.23;;;16.52;;
39524;SDS011;25203;50.754;6.978;2022-11-20T12:05:44;27.45;;;16.77;;
39524;SDS011;25203;50.754;6.978;2022-11-20T12:08:05;29.52;;;17.45;;
39524;SDS011;25203;50.754;6.978;2022-11-20T12:12:38;28.50;;;17.08;;
39524;SDS011;25203;50.754;6.978;2022-11-20T12:14:45;28.58;;;17.00;;
39524;SDS011;25203;50.754;6.978;2022-11-20T12:16:49;26.48;;;17.10;;
39524;SDS011;25203;50.754;6.978;2022-11-20T12:18:52;27.98;;;16.35;;
39524;SDS011;25203;50.754;6.978;2022-11-20T12:23:30;26.13;;;15.43;;
39524;SDS011;25203;50.754;6.978;2022-11-20T12:25:39;30.73;;;17.30;;
39524;SDS011;25203;50.754;6.978;2022-11-20T12:40:52;24.35;;;16.13;;
39524;SDS011;25203;50.754;6.978;2022-11-20T12:48:16;31.88;;;17.52;;
39524;SDS011;25203;50.754;6.978;2022-11-20T12:52:49;26.08;;;16.27;;
39524;SDS011;25203;50.754;6.978;2022-11-20T13:02:13;29.92;;;18.50;;
39524;SDS011;25203;50.754;6.978;2022-11-20T13:06:36;29.50;;;18.02;;
39524;SDS011;25203;50.754;6.978;2022-11-20T13:08:39;34.92;;;19.10;;
39524;SDS011;25203;50.754;6.978;2022-11-20T13:10:46;28.83;;;17.08;;
39524;SDS011;25203;50.754;6.978;2022-11-20T13:12:58;28.30;;;17.83;;